createdAt,value
2016-11-05T00:00:42.008Z,75.09
2016-11-05T00:01:42.029Z,75.09
2016-11-05T00:02:42.043Z,75.28
2016-11-05T00:03:42.060Z,75.19
2016-11-05T00:04:42.066Z,75.47
2016-11-05T00:05:42.090Z,75.67
2016-11-05T00:06:42.105Z,75.76
2016-11-05T00:07:42.113Z,75.67
2016-11-05T00:08:42.135Z,75.85
2016-11-05T00:09:42.148Z,75.67
2016-11-05T00:10:42.165Z,75.57
2016-11-05T00:11:42.178Z,75.28
2016-11-05T00:12:42.207Z,75.95
2016-11-05T00:13:42.215Z,75.57
2016-11-05T00:14:42.348Z,75.85
2016-11-05T00:15:42.350Z,75.95
2016-11-05T00:16:42.350Z,75.85
2016-11-05T00:17:42.368Z,75.28
2016-11-05T00:18:42.377Z,76.04
2016-11-05T00:19:42.392Z,75.95
2016-11-05T00:20:42.434Z,76.23
2016-11-05T00:21:42.503Z,76.52
2016-11-05T00:22:42.502Z,75.95
2016-11-05T00:23:42.695Z,75.95
2016-11-05T00:24:42.526Z,76.23
2016-11-05T00:25:42.524Z,76.42
2016-11-05T00:26:42.537Z,75.76
2016-11-05T00:27:42.548Z,76.42
2016-11-05T00:28:42.764Z,76.42
2016-11-05T00:29:42.558Z,76.52
2016-11-05T00:30:42.588Z,76.33
2016-11-05T00:31:42.705Z,76.42
2016-11-05T00:32:42.715Z,76.23
2016-11-05T00:33:42.710Z,76.04
2016-11-05T00:34:42.627Z,76.04
2016-11-05T00:35:42.637Z,76.04
2016-11-05T00:36:42.646Z,76.33
2016-11-05T00:37:42.685Z,76.04
2016-11-05T00:38:43.035Z,75.95
2016-11-05T00:39:42.703Z,76.33
2016-11-05T00:40:42.712Z,75.85
2016-11-05T00:41:42.719Z,76.14
2016-11-05T00:42:42.758Z,76.14
2016-11-05T00:43:42.776Z,75.95
2016-11-05T00:44:42.762Z,75.95
2016-11-05T00:45:42.775Z,76.14
2016-11-05T00:46:42.723Z,75.95
2016-11-05T00:47:42.742Z,76.33
2016-11-05T00:48:42.757Z,76.33
2016-11-05T00:49:42.775Z,76.33
2016-11-05T00:50:42.788Z,76.14
2016-11-05T00:51:42.804Z,76.04
2016-11-05T00:52:42.817Z,76.33
2016-11-05T00:53:42.837Z,76.14
2016-11-05T00:54:42.852Z,76.23
2016-11-05T00:55:42.868Z,76.33
2016-11-05T00:56:42.878Z,76.14
2016-11-05T00:57:42.892Z,76.14
2016-11-05T00:58:42.912Z,75.85
2016-11-05T00:59:42.927Z,76.23
2016-11-05T01:00:42.938Z,76.14
2016-11-05T01:01:42.957Z,76.33
2016-11-05T01:02:42.975Z,76.04
2016-11-05T01:03:42.990Z,76.14
2016-11-05T01:04:43.005Z,76.23
2016-11-05T01:05:43.022Z,76.04
2016-11-05T01:06:43.037Z,76.04
2016-11-05T01:07:43.052Z,76.23
2016-11-05T01:08:43.069Z,76.14
2016-11-05T01:09:43.077Z,76.14
2016-11-05T01:10:43.093Z,76.23
2016-11-05T01:11:43.107Z,76.23
2016-11-05T01:12:43.131Z,76.04
2016-11-05T01:13:43.145Z,76.04
2016-11-05T01:14:43.159Z,76.42
2016-11-05T01:15:43.176Z,76.42
2016-11-05T01:16:43.180Z,76.42
2016-11-05T01:17:43.208Z,76.23
2016-11-05T01:18:43.274Z,75.95
2016-11-05T01:19:43.238Z,76.04
2016-11-05T01:20:43.255Z,76.33
2016-11-05T01:21:43.264Z,76.04
2016-11-05T01:22:43.315Z,75.85
2016-11-05T01:23:43.301Z,76.33
2016-11-05T01:24:43.318Z,76.23
2016-11-05T01:25:43.326Z,76.33
2016-11-05T01:26:43.347Z,75.95
2016-11-05T01:27:43.362Z,76.14
2016-11-05T01:28:43.376Z,75.85
2016-11-05T01:29:43.390Z,76.04
2016-11-05T01:30:43.408Z,76.14
2016-11-05T01:31:43.419Z,76.23
2016-11-05T01:32:43.438Z,76.14
2016-11-05T01:33:43.455Z,76.23
2016-11-05T01:34:43.471Z,76.14
2016-11-05T01:35:43.481Z,75.76
2016-11-05T01:36:43.502Z,76.14
2016-11-05T01:37:43.522Z,76.04
2016-11-05T01:38:43.527Z,75.85
2016-11-05T01:39:43.545Z,75.76
2016-11-05T01:40:43.563Z,76.23
2016-11-05T01:41:43.578Z,75.95
2016-11-05T01:42:43.587Z,75.67
2016-11-05T01:43:43.611Z,75.95
2016-11-05T01:44:43.619Z,76.14
2016-11-05T01:45:43.639Z,75.95
2016-11-05T01:46:43.652Z,75.95
2016-11-05T01:47:43.668Z,75.95
2016-11-05T01:48:43.687Z,76.14
2016-11-05T01:49:43.703Z,76.04
2016-11-05T01:50:43.754Z,76.23
2016-11-05T01:51:43.732Z,76.14
2016-11-05T01:52:43.746Z,76.14
2016-11-05T01:53:43.759Z,76.42
2016-11-05T01:54:43.777Z,75.95
2016-11-05T01:55:43.800Z,76.04
2016-11-05T01:56:43.811Z,76.04
2016-11-05T01:57:43.828Z,76.33
2016-11-05T01:58:43.871Z,75.85
2016-11-05T01:59:43.858Z,76.04
2016-11-05T02:00:43.866Z,75.95
2016-11-05T02:01:43.886Z,75.76
2016-11-05T02:02:43.898Z,76.04
2016-11-05T02:03:43.917Z,76.04
2016-11-05T02:04:43.928Z,75.95
2016-11-05T02:05:43.946Z,75.76
2016-11-05T02:06:43.960Z,75.95
2016-11-05T02:07:43.980Z,75.85
2016-11-05T02:08:43.990Z,75.85
2016-11-05T02:09:44.008Z,76.04
2016-11-05T02:10:44.028Z,76.04
2016-11-05T02:11:44.037Z,76.42
2016-11-05T02:12:44.056Z,75.67
2016-11-05T02:13:44.073Z,75.67
2016-11-05T02:14:44.083Z,75.85
2016-11-05T02:15:44.102Z,76.04
2016-11-05T02:16:44.115Z,75.95
2016-11-05T02:17:44.136Z,76.04
2016-11-05T02:18:44.152Z,76.04
2016-11-05T02:19:44.162Z,76.14
2016-11-05T02:20:44.186Z,75.95
2016-11-05T02:21:44.205Z,75.95
2016-11-05T02:22:44.207Z,75.95
2016-11-05T02:23:44.223Z,76.33
2016-11-05T02:24:44.238Z,76.04
2016-11-05T02:25:44.248Z,76.33
2016-11-05T02:26:44.268Z,76.42
2016-11-05T02:27:44.287Z,76.42
2016-11-05T02:28:44.303Z,75.95
2016-11-05T02:29:44.316Z,76.23
2016-11-05T02:30:44.338Z,75.85
2016-11-05T02:31:44.350Z,76.14
2016-11-05T02:32:44.362Z,75.67
2016-11-05T02:33:44.382Z,76.42
2016-11-05T02:34:44.390Z,75.85
2016-11-05T02:35:44.408Z,75.95
2016-11-05T02:36:44.428Z,76.14
2016-11-05T02:37:44.437Z,75.95
2016-11-05T02:38:44.451Z,75.85
2016-11-05T02:39:44.474Z,75.85
2016-11-05T02:40:44.485Z,75.67
2016-11-05T02:41:44.495Z,75.85
2016-11-05T02:42:44.515Z,75.85
2016-11-05T02:43:44.528Z,76.14
2016-11-05T02:44:44.854Z,75.95
2016-11-05T02:45:44.559Z,75.95
2016-11-05T02:46:44.573Z,76.42
2016-11-05T02:47:44.591Z,76.42
2016-11-05T02:48:44.605Z,76.14
2016-11-05T02:49:44.623Z,76.14
2016-11-05T02:50:44.643Z,75.47
2016-11-05T02:51:44.654Z,76.04
2016-11-05T02:52:44.665Z,75.95
2016-11-05T02:53:44.683Z,76.42
2016-11-05T02:54:44.696Z,75.85
2016-11-05T02:55:44.712Z,75.95
2016-11-05T02:56:44.734Z,75.95
2016-11-05T02:57:44.741Z,76.33
2016-11-05T02:58:44.764Z,76.33
2016-11-05T02:59:44.779Z,76.14
2016-11-05T03:00:44.796Z,76.42
2016-11-05T03:01:44.805Z,75.95
2016-11-05T03:02:44.834Z,75.38
2016-11-05T03:03:44.843Z,75.95
2016-11-05T03:04:44.860Z,75.19
2016-11-05T03:05:44.873Z,76.04
2016-11-05T03:06:44.893Z,76.04
2016-11-05T03:07:44.921Z,75.95
2016-11-05T03:08:44.951Z,75.95
2016-11-05T03:09:44.932Z,76.04
2016-11-05T03:10:44.951Z,75.76
2016-11-05T03:11:44.975Z,75.95
2016-11-05T03:12:44.978Z,75.85
2016-11-05T03:13:44.992Z,75.95
2016-11-05T03:14:45.048Z,75.95
2016-11-05T03:15:45.031Z,75.38
2016-11-05T03:16:45.048Z,76.04
2016-11-05T03:17:45.057Z,75.95
2016-11-05T03:18:45.071Z,75.95
2016-11-05T03:19:45.125Z,76.42
2016-11-05T03:20:45.134Z,76.23
2016-11-05T03:21:45.119Z,76.33
2016-11-05T03:22:45.133Z,75.76
2016-11-05T03:23:45.149Z,75.67
2016-11-05T03:24:45.165Z,76.14
2016-11-05T03:25:45.181Z,76.04
2016-11-05T03:26:45.197Z,76.33
2016-11-05T03:27:45.225Z,76.04
2016-11-05T03:28:45.228Z,75.95
2016-11-05T03:29:45.242Z,76.04
2016-11-05T03:30:45.258Z,76.33
2016-11-05T03:31:45.271Z,75.67
2016-11-05T03:32:45.287Z,76.14
2016-11-05T03:33:45.303Z,76.23
2016-11-05T03:34:45.324Z,76.23
2016-11-05T03:35:45.334Z,76.33
2016-11-05T03:36:45.352Z,76.14
2016-11-05T03:37:45.365Z,76.33
2016-11-05T03:38:45.381Z,76.04
2016-11-05T03:39:45.401Z,76.23
2016-11-05T03:40:45.415Z,76.33
2016-11-05T03:41:45.431Z,76.14
2016-11-05T03:42:45.443Z,76.33
2016-11-05T03:43:45.461Z,76.04
2016-11-05T03:44:45.512Z,76.04
2016-11-05T03:45:45.491Z,76.14
2016-11-05T03:46:45.507Z,76.33
2016-11-05T03:47:45.523Z,76.23
2016-11-05T03:48:45.539Z,75.67
2016-11-05T03:49:45.554Z,76.33
2016-11-05T03:50:45.570Z,76.14
2016-11-05T03:51:45.586Z,75.95
2016-11-05T03:52:45.601Z,75.95
2016-11-05T03:53:45.614Z,75.95
2016-11-05T03:54:45.632Z,75.95
2016-11-05T03:55:45.645Z,76.14
2016-11-05T03:56:45.664Z,76.33
2016-11-05T03:57:45.676Z,76.23
2016-11-05T03:58:45.693Z,76.04
2016-11-05T03:59:45.708Z,75.95
2016-11-05T04:00:45.730Z,76.14
2016-11-05T04:01:45.738Z,76.42
2016-11-05T04:02:45.756Z,76.33
2016-11-05T04:03:45.771Z,76.42
2016-11-05T04:04:45.789Z,76.42
2016-11-05T04:05:45.804Z,76.33
2016-11-05T04:06:45.825Z,76.61
2016-11-05T04:07:45.842Z,75.76
2016-11-05T04:08:45.850Z,75.19
2016-11-05T04:09:45.867Z,75.95
2016-11-05T04:10:45.885Z,76.42
2016-11-05T04:11:45.901Z,75.67
2016-11-05T04:12:45.912Z,76.42
2016-11-05T04:13:45.925Z,76.42
2016-11-05T04:14:45.942Z,75.95
2016-11-05T04:15:46.157Z,75.85
2016-11-05T04:16:45.976Z,76.23
2016-11-05T04:17:45.997Z,76.23
2016-11-05T04:18:46.007Z,76.42
2016-11-05T04:19:46.023Z,76.42
2016-11-05T04:20:46.038Z,76.42
2016-11-05T04:21:46.058Z,75.76
2016-11-05T04:22:46.067Z,76.04
2016-11-05T04:23:46.081Z,76.04
2016-11-05T04:24:46.099Z,76.14
2016-11-05T04:25:46.115Z,76.23
2016-11-05T04:26:46.129Z,76.33
2016-11-05T04:27:46.146Z,75.95
2016-11-05T04:28:46.161Z,76.33
2016-11-05T04:29:46.177Z,76.33
2016-11-05T04:30:46.191Z,76.04
2016-11-05T04:31:46.206Z,76.42
2016-11-05T04:32:46.223Z,75.95
2016-11-05T04:33:46.240Z,75.67
2016-11-05T04:34:46.256Z,76.33
2016-11-05T04:35:46.272Z,76.14
2016-11-05T04:36:46.287Z,76.14
2016-11-05T04:37:46.302Z,76.14
2016-11-05T04:38:46.326Z,76.14
2016-11-05T04:39:46.337Z,76.33
2016-11-05T04:40:46.349Z,76.33
2016-11-05T04:41:46.398Z,76.14
2016-11-05T04:42:46.382Z,76.42
2016-11-05T04:43:46.401Z,75.85
2016-11-05T04:44:46.410Z,76.33
2016-11-05T04:45:46.426Z,76.14
2016-11-05T04:46:46.444Z,76.14
2016-11-05T04:47:46.458Z,75.76
2016-11-05T04:48:46.473Z,76.33
2016-11-05T04:49:46.486Z,75.76
2016-11-05T04:50:46.503Z,76.23
2016-11-05T04:51:46.519Z,76.04
2016-11-05T04:52:46.535Z,76.14
2016-11-05T04:53:46.551Z,76.14
2016-11-05T04:54:46.568Z,76.14
2016-11-05T04:55:46.580Z,75.95
2016-11-05T04:56:46.596Z,76.04
2016-11-05T04:57:46.615Z,75.95
2016-11-05T04:58:46.628Z,76.23
2016-11-05T04:59:46.645Z,75.95
2016-11-05T05:00:46.663Z,75.85
2016-11-05T05:01:46.681Z,75.85
2016-11-05T05:02:46.691Z,76.14
2016-11-05T05:03:46.715Z,76.33
2016-11-05T05:04:46.725Z,75.57
2016-11-05T05:05:46.736Z,75.76
2016-11-05T05:06:46.753Z,76.04
2016-11-05T05:07:46.770Z,76.04
2016-11-05T05:08:46.786Z,76.33
2016-11-05T05:09:46.831Z,75.76
2016-11-05T05:10:46.817Z,75.95
2016-11-05T05:11:46.831Z,75.57
2016-11-05T05:12:46.848Z,76.04
2016-11-05T05:13:46.863Z,75.76
2016-11-05T05:14:46.881Z,75.85
2016-11-05T05:15:46.894Z,75.85
2016-11-05T05:16:46.908Z,75.67
2016-11-05T05:17:46.927Z,75.57
2016-11-05T05:18:46.940Z,75.85
2016-11-05T05:19:46.955Z,75.47
2016-11-05T05:20:46.972Z,75.47
2016-11-05T05:21:46.988Z,75.57
2016-11-05T05:22:47.004Z,75.95
2016-11-05T05:23:47.021Z,75.85
2016-11-05T05:24:47.035Z,76.33
2016-11-05T05:25:47.050Z,75.47
2016-11-05T05:26:47.094Z,75.95
2016-11-05T05:27:47.430Z,75.76
2016-11-05T05:28:47.096Z,75.76
2016-11-05T05:29:47.116Z,75.67
2016-11-05T05:30:47.131Z,75.85
2016-11-05T05:31:47.146Z,75.85
2016-11-05T05:32:47.159Z,75.67
2016-11-05T05:33:47.174Z,75.67
2016-11-05T05:34:47.189Z,75.85
2016-11-05T05:35:47.208Z,75.57
2016-11-05T05:36:47.243Z,75.85
2016-11-05T05:37:47.240Z,75.67
2016-11-05T05:38:47.256Z,75.67
2016-11-05T05:39:47.267Z,75.76
2016-11-05T05:40:47.286Z,75.85
2016-11-05T05:41:47.304Z,75.09
2016-11-05T05:42:47.316Z,75.67
2016-11-05T05:43:47.329Z,75.47
2016-11-05T05:44:47.353Z,75.95
2016-11-05T05:45:47.362Z,75.76
2016-11-05T05:46:47.409Z,75.85
2016-11-05T05:47:47.394Z,75.38
2016-11-05T05:48:47.410Z,75.19
2016-11-05T05:49:47.425Z,75.38
2016-11-05T05:50:47.440Z,75.38
2016-11-05T05:51:47.455Z,75.38
2016-11-05T05:52:47.469Z,75.67
2016-11-05T05:53:47.490Z,75.85
2016-11-05T05:54:47.510Z,75.47
2016-11-05T05:55:47.518Z,75.85
2016-11-05T05:56:47.534Z,75.19
2016-11-05T05:57:47.549Z,75.67
2016-11-05T05:58:47.564Z,75.67
2016-11-05T05:59:47.579Z,75.85
2016-11-05T06:00:47.595Z,76.04
2016-11-05T06:01:47.611Z,75.85
2016-11-05T06:02:47.626Z,75.95
2016-11-05T06:03:47.643Z,76.42
2016-11-05T06:04:47.657Z,76.42
2016-11-05T06:05:47.675Z,76.33
2016-11-05T06:06:47.687Z,76.42
2016-11-05T06:07:47.703Z,75.95
2016-11-05T06:08:47.721Z,76.33
2016-11-05T06:09:47.738Z,75.95
2016-11-05T06:10:47.750Z,75.67
2016-11-05T06:11:47.769Z,76.33
2016-11-05T06:12:47.781Z,76.14
2016-11-05T06:13:47.797Z,76.23
2016-11-05T06:14:47.818Z,75.95
2016-11-05T06:15:47.831Z,76.14
2016-11-05T06:16:47.842Z,75.67
2016-11-05T06:17:47.858Z,76.14
2016-11-05T06:18:47.875Z,76.14
2016-11-05T06:19:47.892Z,75.67
2016-11-05T06:20:47.906Z,76.14
2016-11-05T06:21:47.924Z,76.14
2016-11-05T06:22:47.938Z,76.14
2016-11-05T06:23:47.954Z,76.14
2016-11-05T06:24:47.970Z,76.14
2016-11-05T06:25:47.985Z,76.23
2016-11-05T06:26:48.001Z,76.04
2016-11-05T06:27:48.016Z,76.23
2016-11-05T06:28:48.028Z,76.14
2016-11-05T06:29:48.046Z,76.04
2016-11-05T06:30:48.064Z,76.14
2016-11-05T06:31:48.077Z,75.76
2016-11-05T06:32:48.097Z,76.14
2016-11-05T06:33:48.110Z,76.04
2016-11-05T06:34:48.124Z,76.14
2016-11-05T06:35:48.141Z,76.04
2016-11-05T06:36:48.154Z,76.14
2016-11-05T06:37:48.170Z,75.85
2016-11-05T06:38:48.187Z,75.85
2016-11-05T06:39:48.202Z,75.85
2016-11-05T06:40:48.217Z,76.23
2016-11-05T06:41:48.233Z,76.04
2016-11-05T06:42:48.251Z,76.33
2016-11-05T06:43:48.265Z,76.14
2016-11-05T06:44:48.287Z,76.04
2016-11-05T06:45:48.311Z,76.14
2016-11-05T06:46:48.309Z,76.14
2016-11-05T06:47:48.324Z,75.85
2016-11-05T06:48:48.339Z,76.33
2016-11-05T06:49:48.357Z,76.23
2016-11-05T06:50:48.372Z,76.33
2016-11-05T06:51:48.386Z,76.04
2016-11-05T06:52:48.433Z,76.42
2016-11-05T06:53:48.417Z,76.23
2016-11-05T06:54:48.483Z,75.95
2016-11-05T06:55:48.480Z,76.14
2016-11-05T06:56:48.503Z,76.04
2016-11-05T06:57:48.478Z,76.23
2016-11-05T06:58:48.493Z,75.95
2016-11-05T06:59:48.508Z,76.33
2016-11-05T07:00:48.524Z,76.14
2016-11-05T07:01:48.540Z,76.14
2016-11-05T07:02:48.554Z,76.14
2016-11-05T07:03:48.571Z,76.33
2016-11-05T07:04:48.583Z,76.04
2016-11-05T07:05:48.603Z,76.14
2016-11-05T07:06:48.620Z,76.04
2016-11-05T07:07:48.635Z,76.04
2016-11-05T07:08:48.655Z,76.04
2016-11-05T07:09:48.670Z,76.04
2016-11-05T07:10:48.680Z,76.33
2016-11-05T07:11:48.695Z,76.33
2016-11-05T07:12:48.709Z,76.33
2016-11-05T07:13:48.727Z,76.04
2016-11-05T07:14:48.739Z,76.33
2016-11-05T07:15:48.755Z,76.33
2016-11-05T07:16:48.777Z,76.04
2016-11-05T07:17:48.786Z,76.33
2016-11-05T07:18:48.800Z,75.76
2016-11-05T07:19:48.823Z,76.04
2016-11-05T07:20:48.832Z,75.76
2016-11-05T07:21:48.847Z,75.95
2016-11-05T07:22:48.863Z,75.95
2016-11-05T07:23:48.882Z,76.04
2016-11-05T07:24:48.896Z,76.42
2016-11-05T07:25:48.909Z,76.33
2016-11-05T07:26:48.926Z,76.52
2016-11-05T07:27:48.945Z,76.42
2016-11-05T07:28:48.962Z,76.04
2016-11-05T07:29:48.972Z,75.95
2016-11-05T07:30:48.992Z,75.95
2016-11-05T07:31:49.007Z,75.28
2016-11-05T07:32:49.019Z,75.95
2016-11-05T07:33:49.035Z,76.33
2016-11-05T07:34:49.054Z,75.95
2016-11-05T07:35:49.066Z,75.95
2016-11-05T07:36:49.080Z,76.42
2016-11-05T07:37:49.103Z,76.33
2016-11-05T07:38:49.111Z,76.14
2016-11-05T07:39:49.129Z,76.33
2016-11-05T07:40:49.142Z,76.33
2016-11-05T07:41:49.160Z,76.14
2016-11-05T07:42:49.175Z,76.42
2016-11-05T07:43:49.187Z,76.33
2016-11-05T07:44:49.206Z,76.33
2016-11-05T07:45:49.222Z,76.42
2016-11-05T07:46:49.240Z,75.67
2016-11-05T07:47:49.252Z,75.76
2016-11-05T07:48:49.266Z,75.95
2016-11-05T07:49:49.285Z,76.23
2016-11-05T07:50:49.303Z,76.33
2016-11-05T07:51:49.347Z,76.04
2016-11-05T07:52:49.332Z,75.95
2016-11-05T07:53:49.348Z,76.04
2016-11-05T07:54:49.359Z,76.42
2016-11-05T07:55:49.376Z,76.33
2016-11-05T07:56:49.395Z,76.14
2016-11-05T07:57:49.408Z,75.67
2016-11-05T07:58:49.441Z,76.14
2016-11-05T07:59:49.440Z,76.33
2016-11-05T08:00:49.459Z,76.04
2016-11-05T08:01:49.479Z,76.23
2016-11-05T08:02:49.486Z,75.95
2016-11-05T08:03:49.501Z,76.04
2016-11-05T08:04:49.527Z,76.14
2016-11-05T08:05:49.582Z,76.04
2016-11-05T08:06:49.549Z,76.14
2016-11-05T08:07:49.564Z,76.14
2016-11-05T08:08:49.582Z,76.14
2016-11-05T08:09:49.937Z,76.14
2016-11-05T08:10:49.611Z,76.04
2016-11-05T08:11:49.626Z,76.23
2016-11-05T08:12:49.642Z,76.14
2016-11-05T08:13:49.659Z,76.18
2016-11-05T08:14:49.675Z,76.14
2016-11-05T08:15:49.688Z,76.18
2016-11-05T08:16:49.714Z,76.08
2016-11-05T08:17:49.727Z,76.37
2016-11-05T08:18:49.739Z,76.37
2016-11-05T08:19:49.751Z,76.18
2016-11-05T08:20:49.766Z,76.14
2016-11-05T08:21:49.785Z,75.57
2016-11-05T08:22:49.803Z,76.14
2016-11-05T08:23:49.814Z,76.04
2016-11-05T08:24:49.830Z,76.14
2016-11-05T08:25:49.846Z,75.79
2016-11-05T08:26:49.860Z,76.27
2016-11-05T08:27:49.878Z,76.18
2016-11-05T08:28:49.893Z,75.99
2016-11-05T08:29:49.910Z,76.27
2016-11-05T08:30:49.924Z,76.08
2016-11-05T08:31:49.941Z,76.37
2016-11-05T08:32:49.953Z,75.89
2016-11-05T08:33:49.973Z,76.04
2016-11-05T08:34:49.986Z,76.37
2016-11-05T08:35:50.003Z,76.18
2016-11-05T08:36:50.021Z,76.18
2016-11-05T08:37:50.033Z,76.04
2016-11-05T08:38:50.053Z,76.46
2016-11-05T08:39:50.068Z,76.08
2016-11-05T08:40:50.081Z,76.08
2016-11-05T08:41:50.097Z,76.18
2016-11-05T08:42:50.120Z,75.6
2016-11-05T08:43:50.128Z,75.99
2016-11-05T08:44:50.146Z,76.08
2016-11-05T08:45:50.159Z,76.18
2016-11-05T08:46:50.179Z,76.08
2016-11-05T08:47:50.190Z,76.14
2016-11-05T08:48:50.206Z,76.08
2016-11-05T08:49:50.224Z,76.33
2016-11-05T08:50:50.240Z,76.27
2016-11-05T08:51:50.253Z,76.14
2016-11-05T08:52:50.270Z,76.37
2016-11-05T08:53:50.289Z,76.27
2016-11-05T08:54:50.301Z,76.18
2016-11-05T08:55:50.317Z,75.99
2016-11-05T08:56:50.336Z,75.7
2016-11-05T08:57:50.349Z,76.18
2016-11-05T08:58:50.366Z,76.18
2016-11-05T08:59:50.385Z,75.79
2016-11-05T09:00:50.397Z,76.18
2016-11-05T09:01:50.410Z,76.27
2016-11-05T09:02:50.435Z,76.37
2016-11-05T09:03:50.446Z,76.37
2016-11-05T09:04:50.457Z,76.37
2016-11-05T09:05:50.498Z,76.27
2016-11-05T09:06:50.489Z,75.99
2016-11-05T09:07:50.824Z,75.99
2016-11-05T09:08:50.522Z,76.46
2016-11-05T09:09:50.547Z,75.99
2016-11-05T09:10:50.556Z,76.18
2016-11-05T09:11:50.572Z,75.23
2016-11-05T09:12:50.586Z,75.99
2016-11-05T09:13:50.607Z,76.46
2016-11-05T09:14:50.621Z,76.37
2016-11-05T09:15:50.632Z,76.46
2016-11-05T09:16:50.650Z,75.99
2016-11-05T09:17:50.674Z,75.99
2016-11-05T09:18:50.681Z,75.7
2016-11-05T09:19:50.701Z,76.08
2016-11-05T09:20:50.714Z,75.79
2016-11-05T09:21:50.729Z,75.6
2016-11-05T09:22:50.748Z,75.89
2016-11-05T09:23:50.768Z,75.89
2016-11-05T09:24:50.807Z,76.18
2016-11-05T09:25:50.794Z,75.32
2016-11-05T09:26:50.808Z,75.23
2016-11-05T09:27:50.829Z,75.7
2016-11-05T09:28:50.842Z,75.51
2016-11-05T09:29:50.862Z,75.7
2016-11-05T09:30:50.872Z,75.42
2016-11-05T09:31:50.891Z,75.23
2016-11-05T09:32:50.922Z,75.32
2016-11-05T09:33:50.919Z,75.23
2016-11-05T09:34:50.939Z,75.42
2016-11-05T09:35:50.958Z,75.6
2016-11-05T09:36:50.972Z,75.32
2016-11-05T09:37:50.985Z,75.42
2016-11-05T09:38:50.998Z,75.26
2016-11-05T09:39:51.021Z,75.26
2016-11-05T09:40:51.033Z,75.45
2016-11-05T09:41:51.047Z,75.45
2016-11-05T09:42:51.184Z,75.45
2016-11-05T09:43:51.078Z,75.45
2016-11-05T09:44:51.097Z,75.45
2016-11-05T09:45:51.118Z,75.36
2016-11-05T09:46:51.130Z,74.88
2016-11-05T09:47:51.148Z,75.07
2016-11-05T09:48:51.159Z,75.07
2016-11-05T09:49:51.178Z,75.55
2016-11-05T09:50:51.195Z,75.07
2016-11-05T09:51:51.215Z,75.07
2016-11-05T09:52:51.231Z,75.07
2016-11-05T09:53:51.246Z,75.07
2016-11-05T09:54:51.262Z,74.69
2016-11-05T09:55:51.276Z,74.69
2016-11-05T09:56:51.297Z,74.6
2016-11-05T09:57:51.309Z,74.79
2016-11-05T09:58:51.322Z,74.69
2016-11-05T09:59:51.342Z,74.88
2016-11-05T10:00:51.355Z,74.5
2016-11-05T10:01:51.370Z,74.69
2016-11-05T10:02:51.502Z,74.79
2016-11-05T10:03:51.402Z,74.69
2016-11-05T10:04:51.424Z,74.98
2016-11-05T10:05:51.448Z,74.6
2016-11-05T10:06:51.467Z,74.21
2016-11-05T10:07:51.467Z,74.6
2016-11-05T10:08:51.488Z,74.79
2016-11-05T10:09:51.616Z,74.31
2016-11-05T10:10:51.535Z,74.79
2016-11-05T10:11:51.534Z,74.79
2016-11-05T10:12:51.548Z,74.79
2016-11-05T10:13:51.565Z,74.92
2016-11-05T10:14:51.581Z,73.83
2016-11-05T10:15:51.908Z,74.06
2016-11-05T10:16:51.615Z,74.02
2016-11-05T10:17:51.632Z,74.4
2016-11-05T10:18:51.648Z,74.02
2016-11-05T10:19:51.665Z,73.93
2016-11-05T10:20:51.682Z,74.21
2016-11-05T10:21:51.703Z,74.6
2016-11-05T10:22:51.713Z,74.4
2016-11-05T10:23:51.732Z,74.63
2016-11-05T10:24:51.745Z,74.4
2016-11-05T10:25:51.761Z,74.63
2016-11-05T10:26:51.778Z,74.4
2016-11-05T10:28:36.606Z,73.68
2016-11-05T10:28:51.813Z,74.73
2016-11-05T10:29:51.831Z,74.73
2016-11-05T10:30:51.842Z,73.77
2016-11-05T10:31:51.861Z,74.54
2016-11-05T10:32:51.883Z,74.54
2016-11-05T10:33:51.894Z,74.44
2016-11-05T10:34:51.914Z,73.87
2016-11-05T10:35:51.927Z,74.63
2016-11-05T10:36:51.942Z,74.82
2016-11-05T10:37:51.960Z,73.77
2016-11-05T10:38:51.982Z,73.77
2016-11-05T10:39:51.993Z,74.63
2016-11-05T10:40:52.019Z,74.54
2016-11-05T10:41:52.029Z,74.63
2016-11-05T10:42:52.048Z,74.44
2016-11-05T10:43:52.056Z,74.35
2016-11-05T10:44:52.078Z,74.73
2016-11-05T10:45:52.174Z,74.16
2016-11-05T10:46:52.111Z,74.92
2016-11-05T10:47:52.122Z,74.35
2016-11-05T10:48:52.140Z,74.54
2016-11-05T10:49:52.159Z,74.63
2016-11-05T10:50:52.175Z,74.92
2016-11-05T10:51:52.197Z,74.82
2016-11-05T10:52:52.207Z,74.54
2016-11-05T10:53:52.224Z,74.54
2016-11-05T10:54:52.240Z,74.92
2016-11-05T10:55:52.261Z,74.44
2016-11-05T10:56:52.275Z,74.82
2016-11-05T10:57:52.288Z,75.01
2016-11-05T10:58:52.305Z,74.82
2016-11-05T10:59:52.326Z,75.2
2016-11-05T11:00:52.341Z,74.82
2016-11-05T11:01:52.355Z,74.92
2016-11-05T11:02:52.375Z,75.2
2016-11-05T11:03:52.389Z,75.11
2016-11-05T11:04:52.445Z,74.73
2016-11-05T11:05:52.426Z,74.82
2016-11-05T11:06:52.445Z,74.82
2016-11-05T11:07:52.461Z,74.73
2016-11-05T11:08:52.474Z,74.73
2016-11-05T11:09:52.487Z,74.73
2016-11-05T11:10:52.505Z,74.82
2016-11-05T11:11:52.522Z,74.63
2016-11-05T11:12:52.547Z,74.73
2016-11-05T11:13:52.556Z,74.82
2016-11-05T11:14:52.575Z,74.92
2016-11-05T11:15:52.587Z,75.01
2016-11-05T11:16:52.720Z,74.54
2016-11-05T11:17:52.622Z,74.82
2016-11-05T11:18:52.642Z,74.73
2016-11-05T11:19:52.655Z,74.73
2016-11-05T11:20:52.864Z,74.63
2016-11-05T11:21:52.697Z,74.73
2016-11-05T11:22:52.789Z,74.73
2016-11-05T11:23:52.720Z,75.05
2016-11-05T11:24:52.736Z,74.77
2016-11-05T11:25:52.755Z,74.82
2016-11-05T11:26:52.776Z,74.96
2016-11-05T11:27:52.787Z,74.63
2016-11-05T11:28:52.808Z,74.92
2016-11-05T11:29:52.823Z,74.92
2016-11-05T11:30:52.837Z,74.92
2016-11-05T11:31:52.852Z,74.54
2016-11-05T11:32:52.872Z,74.77
2016-11-05T11:33:52.911Z,74.92
2016-11-05T11:34:52.905Z,74.92
2016-11-05T11:35:52.927Z,74.82
2016-11-05T11:36:52.936Z,74.77
2016-11-05T11:37:52.957Z,74.86
2016-11-05T11:38:52.974Z,74.86
2016-11-05T11:39:52.994Z,74.86
2016-11-05T11:40:53.009Z,74.86
2016-11-05T11:41:53.020Z,74.77
2016-11-05T11:42:53.040Z,74.77
2016-11-05T11:43:53.054Z,74.77
2016-11-05T11:44:53.072Z,74.77
2016-11-05T11:45:53.091Z,74.67
2016-11-05T11:46:53.105Z,74.96
2016-11-05T11:47:53.127Z,74.86
2016-11-05T11:48:53.138Z,74.96
2016-11-05T11:49:53.156Z,74.67
2016-11-05T11:50:53.175Z,74.67
2016-11-05T11:51:53.194Z,74.77
2016-11-05T11:52:53.213Z,74.77
2016-11-05T11:53:53.226Z,74.77
2016-11-05T11:54:53.255Z,74.77
2016-11-05T11:55:53.258Z,74.96
2016-11-05T11:56:53.281Z,74.86
2016-11-05T11:57:53.291Z,74.77
2016-11-05T11:58:53.309Z,74.77
2016-11-05T11:59:53.334Z,74.57
2016-11-05T12:00:53.342Z,74.77
2016-11-05T12:01:53.358Z,74.67
2016-11-05T12:02:53.376Z,74.57
2016-11-05T12:03:53.427Z,74.67
2016-11-05T12:04:53.408Z,75.15
2016-11-05T12:05:53.424Z,75.15
2016-11-05T12:06:53.443Z,74.57
2016-11-05T12:07:53.459Z,75.15
2016-11-05T12:08:53.478Z,74.92
2016-11-05T12:09:53.494Z,75.15
2016-11-05T12:10:53.509Z,74.57
2016-11-05T12:11:53.524Z,75.43
2016-11-05T12:12:53.575Z,75.34
2016-11-05T12:13:53.566Z,75.34
2016-11-05T12:14:53.576Z,75.11
2016-11-05T12:15:53.593Z,75.72
2016-11-05T12:16:53.609Z,75.2
2016-11-05T12:17:53.627Z,75.34
2016-11-05T12:18:53.645Z,75.2
2016-11-05T12:19:53.663Z,75.53
2016-11-05T12:20:53.714Z,75.49
2016-11-05T12:21:53.697Z,75.49
2016-11-05T12:22:53.711Z,75.81
2016-11-05T12:23:53.730Z,75.81
2016-11-05T12:24:53.748Z,75.34
2016-11-05T12:25:53.763Z,75.72
2016-11-05T12:26:53.780Z,75.68
2016-11-05T12:27:53.797Z,75.72
2016-11-05T12:28:53.816Z,75.59
2016-11-05T12:29:53.833Z,75.34
2016-11-05T12:30:53.852Z,75.3
2016-11-05T12:31:53.867Z,75.53
2016-11-05T12:32:53.882Z,75.62
2016-11-05T12:33:53.902Z,75.49
2016-11-05T12:34:53.917Z,75.78
2016-11-05T12:35:53.948Z,75.62
2016-11-05T12:36:53.950Z,75.34
2016-11-05T12:37:53.969Z,75.53
2016-11-05T12:38:53.984Z,75.43
2016-11-05T12:39:54.313Z,75.3
2016-11-05T12:40:54.021Z,75.11
2016-11-05T12:41:54.033Z,75.3
2016-11-05T12:42:54.053Z,75.3
2016-11-05T12:43:54.067Z,75.81
2016-11-05T12:44:54.083Z,76.29
2016-11-05T12:45:54.102Z,75.59
2016-11-05T12:46:54.124Z,76.16
2016-11-05T12:47:54.136Z,75.3
2016-11-05T12:48:54.153Z,76.54
2016-11-05T12:49:54.172Z,76.06
2016-11-05T12:50:54.185Z,75.87
2016-11-05T12:51:54.202Z,76.06
2016-11-05T12:52:54.223Z,76.06
2016-11-05T12:53:54.238Z,76.1